sensor_id;sensor_type;location;lat;lon;timestamp;temperature;humidity
35491;DHT22;21605;52.068;20.806;2023-03-20T00:02:18;5.30;82.50
35491;DHT22;21605;52.068;20.806;2023-03-20T00:04:44;5.30;81.80
35491;DHT22;21605;52.068;20.806;2023-03-20T00:07:14;5.20;82.30
35491;DHT22;21605;52.068;20.806;2023-03-20T00:09:40;5.20;83.70
35491;DHT22;21605;52.068;20.806;2023-03-20T00:12:20;5.20;82.60
35491;DHT22;21605;52.068;20.806;2023-03-20T00:14:48;5.30;82.40
35491;DHT22;21605;52.068;20.806;2023-03-20T00:17:17;5.10;82.60
35491;DHT22;21605;52.068;20.806;2023-03-20T00:19:44;5.60;83.40
35491;DHT22;21605;52.068;20.806;2023-03-20T00:22:19;5.10;83.00
35491;DHT22;21605;52.068;20.806;2023-03-20T00:24:45;5.00;82.40
35491;DHT22;21605;52.068;20.806;2023-03-20T00:27:16;5.00;83.40
35491;DHT22;21605;52.068;20.806;2023-03-20T00:29:43;5.00;83.00
35491;DHT22;21605;52.068;20.806;2023-03-20T00:32:18;4.90;82.80
35491;DHT22;21605;52.068;20.806;2023-03-20T00:34:43;4.90;83.30
35491;DHT22;21605;52.068;20.806;2023-03-20T00:37:18;4.90;83.30
35491;DHT22;21605;52.068;20.806;2023-03-20T00:39:44;4.90;84.00
35491;DHT22;21605;52.068;20.806;2023-03-20T00:42:20;4.80;84.20
35491;DHT22;21605;52.068;20.806;2023-03-20T00:44:53;5.20;83.20
35491;DHT22;21605;52.068;20.806;2023-03-20T00:47:23;4.80;83.30
35491;DHT22;21605;52.068;20.806;2023-03-20T00:49:51;5.00;83.40
35491;DHT22;21605;52.068;20.806;2023-03-20T00:52:19;4.70;83.00
35491;DHT22;21605;52.068;20.806;2023-03-20T00:54:44;4.70;82.80
35491;DHT22;21605;52.068;20.806;2023-03-20T00:57:27;4.70;83.00
35491;DHT22;21605;52.068;20.806;2023-03-20T00:59:57;4.70;82.50
35491;DHT22;21605;52.068;20.806;2023-03-20T01:02:28;5.00;82.40
35491;DHT22;21605;52.068;20.806;2023-03-20T01:04:55;4.60;83.20
35491;DHT22;21605;52.068;20.806;2023-03-20T01:07:26;4.60;83.50
35491;DHT22;21605;52.068;20.806;2023-03-20T01:09:52;4.50;83.50
35491;DHT22;21605;52.068;20.806;2023-03-20T01:12:19;4.50;84.30
35491;DHT22;21605;52.068;20.806;2023-03-20T01:14:47;4.50;84.30
35491;DHT22;21605;52.068;20.806;2023-03-20T01:17:19;4.50;84.20
35491;DHT22;21605;52.068;20.806;2023-03-20T01:19:45;4.40;84.00
35491;DHT22;21605;52.068;20.806;2023-03-20T01:22:18;4.40;84.60
35491;DHT22;21605;52.068;20.806;2023-03-20T01:24:44;4.40;84.90
35491;DHT22;21605;52.068;20.806;2023-03-20T01:27:19;4.60;85.30
35491;DHT22;21605;52.068;20.806;2023-03-20T01:29:45;4.30;85.00
35491;DHT22;21605;52.068;20.806;2023-03-20T01:32:20;4.30;83.90
35491;DHT22;21605;52.068;20.806;2023-03-20T01:34:46;4.30;84.40
35491;DHT22;21605;52.068;20.806;2023-03-20T01:37:16;4.30;84.80
35491;DHT22;21605;52.068;20.806;2023-03-20T01:39:42;4.20;85.10
35491;DHT22;21605;52.068;20.806;2023-03-20T01:42:10;4.30;85.50
35491;DHT22;21605;52.068;20.806;2023-03-20T01:44:53;4.20;85.80
35491;DHT22;21605;52.068;20.806;2023-03-20T01:47:28;4.20;86.00
35491;DHT22;21605;52.068;20.806;2023-03-20T01:52:49;4.20;86.40
35491;DHT22;21605;52.068;20.806;2023-03-20T01:55:16;4.20;86.20
35491;DHT22;21605;52.068;20.806;2023-03-20T01:57:43;4.20;86.50
35491;DHT22;21605;52.068;20.806;2023-03-20T02:00:15;4.20;86.50
35491;DHT22;21605;52.068;20.806;2023-03-20T02:02:46;4.20;85.70
35491;DHT22;21605;52.068;20.806;2023-03-20T02:05:13;4.20;86.40
35491;DHT22;21605;52.068;20.806;2023-03-20T02:07:40;4.20;83.50
35491;DHT22;21605;52.068;20.806;2023-03-20T02:10:25;4.20;83.70
35491;DHT22;21605;52.068;20.806;2023-03-20T02:12:51;4.10;82.60
35491;DHT22;21605;52.068;20.806;2023-03-20T02:15:25;4.20;85.20
35491;DHT22;21605;52.068;20.806;2023-03-20T02:17:51;4.20;86.20
35491;DHT22;21605;52.068;20.806;2023-03-20T02:20:31;4.20;86.20
35491;DHT22;21605;52.068;20.806;2023-03-20T02:26:14;4.20;86.60
35491;DHT22;21605;52.068;20.806;2023-03-20T02:39:51;4.10;87.20
35491;DHT22;21605;52.068;20.806;2023-03-20T02:45:29;4.20;87.40
35491;DHT22;21605;52.068;20.806;2023-03-20T02:51:05;4.10;87.20
35491;DHT22;21605;52.068;20.806;2023-03-20T03:01:50;4.10;87.10
35491;DHT22;21605;52.068;20.806;2023-03-20T03:04:22;4.00;86.90
35491;DHT22;21605;52.068;20.806;2023-03-20T03:06:51;4.10;86.50
35491;DHT22;21605;52.068;20.806;2023-03-20T03:09:45;4.00;86.10
35491;DHT22;21605;52.068;20.806;2023-03-20T03:12:24;4.10;86.80
35491;DHT22;21605;52.068;20.806;2023-03-20T03:14:59;4.00;86.00
35491;DHT22;21605;52.068;20.806;2023-03-20T03:17:33;4.40;86.40
35491;DHT22;21605;52.068;20.806;2023-03-20T03:20:07;4.00;86.30
35491;DHT22;21605;52.068;20.806;2023-03-20T03:22:37;3.90;87.00
35491;DHT22;21605;52.068;20.806;2023-03-20T03:25:03;4.00;87.30
35491;DHT22;21605;52.068;20.806;2023-03-20T03:27:35;3.90;87.90
35491;DHT22;21605;52.068;20.806;2023-03-20T03:30:15;3.90;88.00
35491;DHT22;21605;52.068;20.806;2023-03-20T03:33:29;3.90;87.60
35491;DHT22;21605;52.068;20.806;2023-03-20T03:36:12;3.90;86.10
35491;DHT22;21605;52.068;20.806;2023-03-20T03:41:33;3.90;86.30
35491;DHT22;21605;52.068;20.806;2023-03-20T03:47:05;3.90;88.20
35491;DHT22;21605;52.068;20.806;2023-03-20T03:49:34;3.90;88.60
35491;DHT22;21605;52.068;20.806;2023-03-20T03:52:14;3.80;88.60
35491;DHT22;21605;52.068;20.806;2023-03-20T03:55:03;3.90;88.30
35491;DHT22;21605;52.068;20.806;2023-03-20T03:57:59;3.80;87.90
35491;DHT22;21605;52.068;20.806;2023-03-20T04:00:27;3.80;88.30
35491;DHT22;21605;52.068;20.806;2023-03-20T04:02:56;3.80;89.30
35491;DHT22;21605;52.068;20.806;2023-03-20T04:05:28;4.40;90.00
35491;DHT22;21605;52.068;20.806;2023-03-20T04:08:03;3.80;89.60
35491;DHT22;21605;52.068;20.806;2023-03-20T04:10:30;3.80;89.80
35491;DHT22;21605;52.068;20.806;2023-03-20T04:12:55;3.80;90.00
35491;DHT22;21605;52.068;20.806;2023-03-20T04:15:21;3.70;89.90
35491;DHT22;21605;52.068;20.806;2023-03-20T04:17:47;3.70;90.00
35491;DHT22;21605;52.068;20.806;2023-03-20T04:20:14;3.70;90.20
35491;DHT22;21605;52.068;20.806;2023-03-20T04:22:40;3.70;90.40
35491;DHT22;21605;52.068;20.806;2023-03-20T04:25:08;3.70;90.10
35491;DHT22;21605;52.068;20.806;2023-03-20T04:27:34;3.60;90.20
35491;DHT22;21605;52.068;20.806;2023-03-20T04:30:00;3.70;90.20
35491;DHT22;21605;52.068;20.806;2023-03-20T04:32:29;3.70;90.20
35491;DHT22;21605;52.068;20.806;2023-03-20T04:34:54;3.60;90.20
35491;DHT22;21605;52.068;20.806;2023-03-20T04:37:29;3.60;90.50
35491;DHT22;21605;52.068;20.806;2023-03-20T04:39:55;3.60;90.20
35491;DHT22;21605;52.068;20.806;2023-03-20T04:42:29;3.60;90.40
35491;DHT22;21605;52.068;20.806;2023-03-20T04:44:55;3.60;90.20
35491;DHT22;21605;52.068;20.806;2023-03-20T04:47:24;3.60;90.30
35491;DHT22;21605;52.068;20.806;2023-03-20T04:49:50;3.60;90.70
35491;DHT22;21605;52.068;20.806;2023-03-20T04:52:16;3.60;90.70
35491;DHT22;21605;52.068;20.806;2023-03-20T04:54:42;3.60;90.80
35491;DHT22;21605;52.068;20.806;2023-03-20T04:57:07;3.60;90.90
35491;DHT22;21605;52.068;20.806;2023-03-20T04:59:33;3.60;91.00
35491;DHT22;21605;52.068;20.806;2023-03-20T05:01:58;3.60;91.10
35491;DHT22;21605;52.068;20.806;2023-03-20T05:04:27;3.60;90.90
35491;DHT22;21605;52.068;20.806;2023-03-20T05:06:53;3.60;90.70
35491;DHT22;21605;52.068;20.806;2023-03-20T05:09:28;3.60;90.50
35491;DHT22;21605;52.068;20.806;2023-03-20T05:11:53;3.60;90.90
35491;DHT22;21605;52.068;20.806;2023-03-20T05:14:20;3.60;90.80
35491;DHT22;21605;52.068;20.806;2023-03-20T05:16:46;3.60;91.10
35491;DHT22;21605;52.068;20.806;2023-03-20T05:19:11;3.60;91.10
35491;DHT22;21605;52.068;20.806;2023-03-20T05:21:37;3.60;91.30
35491;DHT22;21605;52.068;20.806;2023-03-20T05:24:03;3.60;91.30
35491;DHT22;21605;52.068;20.806;2023-03-20T05:26:28;3.60;91.30
35491;DHT22;21605;52.068;20.806;2023-03-20T05:28:54;3.60;91.40
35491;DHT22;21605;52.068;20.806;2023-03-20T05:31:24;3.60;91.90
35491;DHT22;21605;52.068;20.806;2023-03-20T05:33:50;3.50;91.80
35491;DHT22;21605;52.068;20.806;2023-03-20T05:36:16;3.60;92.00
35491;DHT22;21605;52.068;20.806;2023-03-20T05:38:42;3.60;92.20
35491;DHT22;21605;52.068;20.806;2023-03-20T05:41:07;3.60;92.00
35491;DHT22;21605;52.068;20.806;2023-03-20T05:43:33;3.70;92.30
35491;DHT22;21605;52.068;20.806;2023-03-20T05:45:58;3.70;92.60
35491;DHT22;21605;52.068;20.806;2023-03-20T05:48:29;3.80;92.70
35491;DHT22;21605;52.068;20.806;2023-03-20T05:50:55;3.90;92.70
35491;DHT22;21605;52.068;20.806;2023-03-20T05:53:30;3.80;92.70
35491;DHT22;21605;52.068;20.806;2023-03-20T05:55:55;4.00;92.70
35491;DHT22;21605;52.068;20.806;2023-03-20T05:58:30;4.10;92.80
35491;DHT22;21605;52.068;20.806;2023-03-20T06:00:57;4.20;92.90
35491;DHT22;21605;52.068;20.806;2023-03-20T06:03:31;4.20;93.00
35491;DHT22;21605;52.068;20.806;2023-03-20T06:05:57;4.30;92.90
35491;DHT22;21605;52.068;20.806;2023-03-20T06:08:32;4.40;92.90
35491;DHT22;21605;52.068;20.806;2023-03-20T06:10:58;4.50;92.80
35491;DHT22;21605;52.068;20.806;2023-03-20T06:13:23;4.60;92.90
35491;DHT22;21605;52.068;20.806;2023-03-20T06:15:49;4.70;92.90
35491;DHT22;21605;52.068;20.806;2023-03-20T06:18:14;5.20;93.00
35491;DHT22;21605;52.068;20.806;2023-03-20T06:20:40;5.10;93.00
35491;DHT22;21605;52.068;20.806;2023-03-20T06:23:06;5.00;92.80
35491;DHT22;21605;52.068;20.806;2023-03-20T06:25:32;5.10;92.90
35491;DHT22;21605;52.068;20.806;2023-03-20T06:27:58;5.30;93.00
35491;DHT22;21605;52.068;20.806;2023-03-20T06:30:36;5.80;93.10
35491;DHT22;21605;52.068;20.806;2023-03-20T06:33:02;5.60;93.00
35491;DHT22;21605;52.068;20.806;2023-03-20T06:35:33;5.70;93.40
35491;DHT22;21605;52.068;20.806;2023-03-20T06:37:59;6.10;92.70
35491;DHT22;21605;52.068;20.806;2023-03-20T06:40:34;6.10;92.50
35491;DHT22;21605;52.068;20.806;2023-03-20T06:43:00;6.30;92.80
35491;DHT22;21605;52.068;20.806;2023-03-20T06:45:35;6.50;93.10
35491;DHT22;21605;52.068;20.806;2023-03-20T06:48:00;6.70;93.30
35491;DHT22;21605;52.068;20.806;2023-03-20T06:50:35;6.90;93.10
35491;DHT22;21605;52.068;20.806;2023-03-20T06:53:01;7.10;93.20
35491;DHT22;21605;52.068;20.806;2023-03-20T06:55:36;7.30;93.60
35491;DHT22;21605;52.068;20.806;2023-03-20T06:58:01;7.50;93.10
35491;DHT22;21605;52.068;20.806;2023-03-20T07:00:28;7.80;93.20
35491;DHT22;21605;52.068;20.806;2023-03-20T07:02:54;8.00;92.90
35491;DHT22;21605;52.068;20.806;2023-03-20T07:05:19;8.20;92.90
35491;DHT22;21605;52.068;20.806;2023-03-20T07:07:45;8.40;93.00
35491;DHT22;21605;52.068;20.806;2023-03-20T07:10:11;8.60;92.80
35491;DHT22;21605;52.068;20.806;2023-03-20T07:12:37;8.80;92.20
35491;DHT22;21605;52.068;20.806;2023-03-20T07:15:03;9.00;92.00
35491;DHT22;21605;52.068;20.806;2023-03-20T07:17:28;9.20;91.60
35491;DHT22;21605;52.068;20.806;2023-03-20T07:19:54;9.40;91.10
35491;DHT22;21605;52.068;20.806;2023-03-20T07:22:22;9.60;91.00
35491;DHT22;21605;52.068;20.806;2023-03-20T07:24:48;9.90;90.80
35491;DHT22;21605;52.068;20.806;2023-03-20T07:27:14;10.10;90.00
35491;DHT22;21605;52.068;20.806;2023-03-20T07:29:39;10.30;90.00
35491;DHT22;21605;52.068;20.806;2023-03-20T07:32:05;10.50;89.60
35491;DHT22;21605;52.068;20.806;2023-03-20T07:34:36;10.70;89.20
35491;DHT22;21605;52.068;20.806;2023-03-20T07:37:03;10.90;89.00
35491;DHT22;21605;52.068;20.806;2023-03-20T07:39:28;11.10;87.70
35491;DHT22;21605;52.068;20.806;2023-03-20T07:41:54;11.30;87.50
35491;DHT22;21605;52.068;20.806;2023-03-20T07:44:20;12.40;87.70
35491;DHT22;21605;52.068;20.806;2023-03-20T07:46:46;11.80;86.60
35491;DHT22;21605;52.068;20.806;2023-03-20T07:49:13;12.00;86.40
35491;DHT22;21605;52.068;20.806;2023-03-20T07:51:40;12.20;85.90
35491;DHT22;21605;52.068;20.806;2023-03-20T07:54:06;12.40;85.60
35491;DHT22;21605;52.068;20.806;2023-03-20T07:56:34;12.60;83.70
35491;DHT22;21605;52.068;20.806;2023-03-20T07:59:00;12.80;83.20
35491;DHT22;21605;52.068;20.806;2023-03-20T08:01:26;13.00;82.30
35491;DHT22;21605;52.068;20.806;2023-03-20T08:03:51;13.10;81.10
35491;DHT22;21605;52.068;20.806;2023-03-20T08:06:17;13.20;80.20
35491;DHT22;21605;52.068;20.806;2023-03-20T08:08:42;13.40;80.70
35491;DHT22;21605;52.068;20.806;2023-03-20T08:11:09;13.50;79.60
35491;DHT22;21605;52.068;20.806;2023-03-20T08:13:35;13.60;78.90
35491;DHT22;21605;52.068;20.806;2023-03-20T08:16:02;13.70;78.90
35491;DHT22;21605;52.068;20.806;2023-03-20T08:18:37;13.90;79.30
35491;DHT22;21605;52.068;20.806;2023-03-20T08:21:03;14.00;78.70
35491;DHT22;21605;52.068;20.806;2023-03-20T08:23:28;14.10;78.00
35491;DHT22;21605;52.068;20.806;2023-03-20T08:25:54;14.40;78.70
35491;DHT22;21605;52.068;20.806;2023-03-20T08:28:21;14.90;81.30
35491;DHT22;21605;52.068;20.806;2023-03-20T08:30:46;15.60;81.70
35491;DHT22;21605;52.068;20.806;2023-03-20T08:33:14;16.30;80.80
35491;DHT22;21605;52.068;20.806;2023-03-20T08:35:40;17.10;77.70
35491;DHT22;21605;52.068;20.806;2023-03-20T08:38:05;17.90;74.60
35491;DHT22;21605;52.068;20.806;2023-03-20T08:40:39;18.50;73.70
35491;DHT22;21605;52.068;20.806;2023-03-20T08:43:06;19.00;69.10
35491;DHT22;21605;52.068;20.806;2023-03-20T08:45:33;19.40;66.00
35491;DHT22;21605;52.068;20.806;2023-03-20T08:47:58;19.80;65.20
35491;DHT22;21605;52.068;20.806;2023-03-20T08:50:24;20.20;64.10
35491;DHT22;21605;52.068;20.806;2023-03-20T08:52:50;20.50;62.50
35491;DHT22;21605;52.068;20.806;2023-03-20T08:55:16;20.80;61.20
35491;DHT22;21605;52.068;20.806;2023-03-20T08:57:42;21.10;60.50
35491;DHT22;21605;52.068;20.806;2023-03-20T09:00:09;21.40;59.00
35491;DHT22;21605;52.068;20.806;2023-03-20T09:02:37;21.50;59.20
35491;DHT22;21605;52.068;20.806;2023-03-20T09:05:03;21.80;58.20
35491;DHT22;21605;52.068;20.806;2023-03-20T09:07:38;21.70;55.80
35491;DHT22;21605;52.068;20.806;2023-03-20T09:10:04;21.80;55.30
35491;DHT22;21605;52.068;20.806;2023-03-20T09:12:39;21.80;55.00
35491;DHT22;21605;52.068;20.806;2023-03-20T09:15:05;22.00;56.50
35491;DHT22;21605;52.068;20.806;2023-03-20T09:17:34;22.10;55.30
35491;DHT22;21605;52.068;20.806;2023-03-20T09:20:00;22.40;54.70
35491;DHT22;21605;52.068;20.806;2023-03-20T09:22:25;22.60;54.30
35491;DHT22;21605;52.068;20.806;2023-03-20T09:24:51;23.00;54.30
35491;DHT22;21605;52.068;20.806;2023-03-20T09:27:17;23.50;53.40
35491;DHT22;21605;52.068;20.806;2023-03-20T09:29:46;23.90;52.60
35491;DHT22;21605;52.068;20.806;2023-03-20T09:32:12;24.30;51.90
35491;DHT22;21605;52.068;20.806;2023-03-20T09:34:44;24.50;50.40
35491;DHT22;21605;52.068;20.806;2023-03-20T09:37:09;24.60;50.20
35491;DHT22;21605;52.068;20.806;2023-03-20T09:39:44;24.90;50.60
35491;DHT22;21605;52.068;20.806;2023-03-20T09:45:09;25.40;49.60
35491;DHT22;21605;52.068;20.806;2023-03-20T09:50:44;26.20;48.70
35491;DHT22;21605;52.068;20.806;2023-03-20T09:56:00;26.70;45.90
35491;DHT22;21605;52.068;20.806;2023-03-20T09:58:30;27.20;44.80
35491;DHT22;21605;52.068;20.806;2023-03-20T10:00:59;27.40;42.80
35491;DHT22;21605;52.068;20.806;2023-03-20T10:03:38;27.80;48.00
35491;DHT22;21605;52.068;20.806;2023-03-20T10:06:11;27.70;43.30
35491;DHT22;21605;52.068;20.806;2023-03-20T10:08:38;27.60;44.40
35491;DHT22;21605;52.068;20.806;2023-03-20T10:14:10;27.70;44.20
35491;DHT22;21605;52.068;20.806;2023-03-20T10:16:54;27.80;44.80
35491;DHT22;21605;52.068;20.806;2023-03-20T10:19:27;27.80;42.90
35491;DHT22;21605;52.068;20.806;2023-03-20T10:22:19;27.60;41.70
35491;DHT22;21605;52.068;20.806;2023-03-20T10:31:18;27.90;44.20
35491;DHT22;21605;52.068;20.806;2023-03-20T10:33:25;27.70;41.80
35491;DHT22;21605;52.068;20.806;2023-03-20T10:40:58;26.30;42.00
35491;DHT22;21605;52.068;20.806;2023-03-20T10:43:28;25.90;43.10
35491;DHT22;21605;52.068;20.806;2023-03-20T10:46:02;25.70;44.60
35491;DHT22;21605;52.068;20.806;2023-03-20T10:48:50;25.00;42.60
35491;DHT22;21605;52.068;20.806;2023-03-20T10:51:20;24.60;43.70
35491;DHT22;21605;52.068;20.806;2023-03-20T10:53:59;24.10;44.20
35491;DHT22;21605;52.068;20.806;2023-03-20T10:56:31;23.90;46.20
35491;DHT22;21605;52.068;20.806;2023-03-20T11:01:47;23.00;46.40
35491;DHT22;21605;52.068;20.806;2023-03-20T11:04:12;22.80;48.30
35491;DHT22;21605;52.068;20.806;2023-03-20T11:06:57;22.30;46.70
35491;DHT22;21605;52.068;20.806;2023-03-20T11:09:25;22.10;47.60
35491;DHT22;21605;52.068;20.806;2023-03-20T11:11:56;21.80;48.30
35491;DHT22;21605;52.068;20.806;2023-03-20T11:14:34;21.50;48.40
35491;DHT22;21605;52.068;20.806;2023-03-20T11:17:01;21.20;49.10
35491;DHT22;21605;52.068;20.806;2023-03-20T11:19:32;21.00;49.60
35491;DHT22;21605;52.068;20.806;2023-03-20T11:22:00;20.80;49.10
35491;DHT22;21605;52.068;20.806;2023-03-20T11:24:35;20.50;49.90
35491;DHT22;21605;52.068;20.806;2023-03-20T11:27:18;20.40;50.50
35491;DHT22;21605;52.068;20.806;2023-03-20T11:29:47;20.30;50.60
35491;DHT22;21605;52.068;20.806;2023-03-20T11:34:54;20.00;50.90
35491;DHT22;21605;52.068;20.806;2023-03-20T11:37:24;19.90;50.70
35491;DHT22;21605;52.068;20.806;2023-03-20T11:39:58;19.80;51.20
35491;DHT22;21605;52.068;20.806;2023-03-20T11:42:28;19.70;51.40
35491;DHT22;21605;52.068;20.806;2023-03-20T11:45:05;19.50;51.00
35491;DHT22;21605;52.068;20.806;2023-03-20T11:47:33;19.50;51.40
35491;DHT22;21605;52.068;20.806;2023-03-20T11:50:02;19.30;51.00
35491;DHT22;21605;52.068;20.806;2023-03-20T11:52:36;19.20;51.30
35491;DHT22;21605;52.068;20.806;2023-03-20T11:55:32;19.00;51.50
35491;DHT22;21605;52.068;20.806;2023-03-20T11:58:00;18.80;51.70
35491;DHT22;21605;52.068;20.806;2023-03-20T12:00:53;18.80;52.00
35491;DHT22;21605;52.068;20.806;2023-03-20T12:03:49;18.70;52.30
35491;DHT22;21605;52.068;20.806;2023-03-20T12:06:22;18.50;52.00
35491;DHT22;21605;52.068;20.806;2023-03-20T12:09:02;18.20;52.40
35491;DHT22;21605;52.068;20.806;2023-03-20T12:13:58;18.00;53.00
35491;DHT22;21605;52.068;20.806;2023-03-20T12:16:26;17.90;53.40
35491;DHT22;21605;52.068;20.806;2023-03-20T12:19:00;17.80;53.90
35491;DHT22;21605;52.068;20.806;2023-03-20T12:24:37;17.40;54.80
35491;DHT22;21605;52.068;20.806;2023-03-20T12:32:45;17.10;55.80
35491;DHT22;21605;52.068;20.806;2023-03-20T12:35:23;17.00;56.60
35491;DHT22;21605;52.068;20.806;2023-03-20T12:37:51;16.80;57.80
35491;DHT22;21605;52.068;20.806;2023-03-20T12:40:17;16.80;58.10
35491;DHT22;21605;52.068;20.806;2023-03-20T12:45:39;16.70;58.70
35491;DHT22;21605;52.068;20.806;2023-03-20T12:50:56;16.60;59.80
35491;DHT22;21605;52.068;20.806;2023-03-20T12:59:36;16.50;61.80
35491;DHT22;21605;52.068;20.806;2023-03-20T13:10:19;16.40;65.50
35491;DHT22;21605;52.068;20.806;2023-03-20T13:13:15;16.30;64.60
35491;DHT22;21605;52.068;20.806;2023-03-20T13:19:02;16.20;66.30
35491;DHT22;21605;52.068;20.806;2023-03-20T13:21:38;16.20;65.40
35491;DHT22;21605;52.068;20.806;2023-03-20T13:24:43;16.20;64.90
35491;DHT22;21605;52.068;20.806;2023-03-20T13:27:41;16.20;65.90
35491;DHT22;21605;52.068;20.806;2023-03-20T13:30:38;16.30;65.60
35491;DHT22;21605;52.068;20.806;2023-03-20T13:33:27;16.30;66.40
35491;DHT22;21605;52.068;20.806;2023-03-20T13:38:33;16.40;65.80
35491;DHT22;21605;52.068;20.806;2023-03-20T13:41:03;16.40;66.50
35491;DHT22;21605;52.068;20.806;2023-03-20T13:43:33;16.40;66.20
35491;DHT22;21605;52.068;20.806;2023-03-20T13:46:11;16.40;66.80
35491;DHT22;21605;52.068;20.806;2023-03-20T13:48:40;16.40;66.50
35491;DHT22;21605;52.068;20.806;2023-03-20T14:05:09;16.20;68.80
35491;DHT22;21605;52.068;20.806;2023-03-20T14:07:37;16.20;68.40
35491;DHT22;21605;52.068;20.806;2023-03-20T14:12:59;16.10;69.70
35491;DHT22;21605;52.068;20.806;2023-03-20T14:15:32;16.00;69.70
35491;DHT22;21605;52.068;20.806;2023-03-20T14:18:06;16.00;71.00
35491;DHT22;21605;52.068;20.806;2023-03-20T14:20:36;15.90;71.80
35491;DHT22;21605;52.068;20.806;2023-03-20T14:23:02;15.90;71.60
35491;DHT22;21605;52.068;20.806;2023-03-20T14:25:34;15.80;72.80
35491;DHT22;21605;52.068;20.806;2023-03-20T14:30:41;15.80;71.20
35491;DHT22;21605;52.068;20.806;2023-03-20T14:51:21;15.50;73.50
35491;DHT22;21605;52.068;20.806;2023-03-20T14:57:16;15.40;74.10
35491;DHT22;21605;52.068;20.806;2023-03-20T14:59:42;15.40;72.60
35491;DHT22;21605;52.068;20.806;2023-03-20T15:02:26;15.30;74.10
35491;DHT22;21605;52.068;20.806;2023-03-20T15:04:53;15.20;74.80
35491;DHT22;21605;52.068;20.806;2023-03-20T15:09:56;15.10;73.60
35491;DHT22;21605;52.068;20.806;2023-03-20T15:12:27;15.10;72.70
35491;DHT22;21605;52.068;20.806;2023-03-20T15:15:04;15.00;72.90
35491;DHT22;21605;52.068;20.806;2023-03-20T15:17:36;15.00;72.60
35491;DHT22;21605;52.068;20.806;2023-03-20T15:22:58;14.80;73.40
35491;DHT22;21605;52.068;20.806;2023-03-20T15:25:30;14.80;73.10
35491;DHT22;21605;52.068;20.806;2023-03-20T15:27:56;14.70;75.00
35491;DHT22;21605;52.068;20.806;2023-03-20T15:30:22;14.60;74.00
35491;DHT22;21605;52.068;20.806;2023-03-20T15:32:49;14.60;75.00
35491;DHT22;21605;52.068;20.806;2023-03-20T15:35:20;14.50;75.50
35491;DHT22;21605;52.068;20.806;2023-03-20T15:37:49;14.50;75.50
35491;DHT22;21605;52.068;20.806;2023-03-20T15:40:26;14.50;74.90
35491;DHT22;21605;52.068;20.806;2023-03-20T15:45:35;14.30;76.20
35491;DHT22;21605;52.068;20.806;2023-03-20T15:48:06;14.30;76.10
35491;DHT22;21605;52.068;20.806;2023-03-20T15:50:34;14.20;75.90
35491;DHT22;21605;52.068;20.806;2023-03-20T15:53:03;14.20;78.10
35491;DHT22;21605;52.068;20.806;2023-03-20T15:55:29;14.10;77.40
35491;DHT22;21605;52.068;20.806;2023-03-20T15:57:56;14.00;77.10
35491;DHT22;21605;52.068;20.806;2023-03-20T16:02:58;13.90;77.20
35491;DHT22;21605;52.068;20.806;2023-03-20T16:05:26;13.90;78.10
35491;DHT22;21605;52.068;20.806;2023-03-20T16:07:54;13.80;77.50
35491;DHT22;21605;52.068;20.806;2023-03-20T16:10:31;13.80;76.80
35491;DHT22;21605;52.068;20.806;2023-03-20T16:13:01;13.70;77.40
35491;DHT22;21605;52.068;20.806;2023-03-20T16:15:29;13.70;78.40
35491;DHT22;21605;52.068;20.806;2023-03-20T16:18:00;13.70;78.30
35491;DHT22;21605;52.068;20.806;2023-03-20T16:20:34;13.60;78.10
35491;DHT22;21605;52.068;20.806;2023-03-20T16:23:04;13.60;79.20
35491;DHT22;21605;52.068;20.806;2023-03-20T16:25:31;13.50;81.30
35491;DHT22;21605;52.068;20.806;2023-03-20T16:27:59;13.40;80.20
35491;DHT22;21605;52.068;20.806;2023-03-20T16:30:29;13.40;79.70
35491;DHT22;21605;52.068;20.806;2023-03-20T16:33:16;13.40;79.70
35491;DHT22;21605;52.068;20.806;2023-03-20T16:35:47;13.30;79.70
35491;DHT22;21605;52.068;20.806;2023-03-20T16:38:25;13.20;79.50
35491;DHT22;21605;52.068;20.806;2023-03-20T16:43:39;13.10;79.70
35491;DHT22;21605;52.068;20.806;2023-03-20T16:46:05;13.10;79.70
35491;DHT22;21605;52.068;20.806;2023-03-20T16:48:35;13.00;80.40
35491;DHT22;21605;52.068;20.806;2023-03-20T16:51:20;12.90;80.50
35491;DHT22;21605;52.068;20.806;2023-03-20T16:53:48;12.90;80.40
35491;DHT22;21605;52.068;20.806;2023-03-20T16:56:40;12.80;80.70
35491;DHT22;21605;52.068;20.806;2023-03-20T16:59:10;12.80;80.90
35491;DHT22;21605;52.068;20.806;2023-03-20T17:01:43;12.70;80.80
35491;DHT22;21605;52.068;20.806;2023-03-20T17:04:41;12.70;81.50
35491;DHT22;21605;52.068;20.806;2023-03-20T17:07:15;12.60;81.10
35491;DHT22;21605;52.068;20.806;2023-03-20T17:12:40;12.50;81.70
35491;DHT22;21605;52.068;20.806;2023-03-20T17:15:07;12.40;81.70
35491;DHT22;21605;52.068;20.806;2023-03-20T17:17:32;12.40;79.90
35491;DHT22;21605;52.068;20.806;2023-03-20T17:19:58;12.30;80.40
35491;DHT22;21605;52.068;20.806;2023-03-20T17:22:26;12.30;80.80
35491;DHT22;21605;52.068;20.806;2023-03-20T17:24:54;12.20;80.40
35491;DHT22;21605;52.068;20.806;2023-03-20T17:27:20;12.20;79.70
35491;DHT22;21605;52.068;20.806;2023-03-20T17:29:46;12.20;78.20
35491;DHT22;21605;52.068;20.806;2023-03-20T17:32:19;12.10;79.30
35491;DHT22;21605;52.068;20.806;2023-03-20T17:34:48;12.00;80.30
35491;DHT22;21605;52.068;20.806;2023-03-20T17:37:26;12.00;81.20
35491;DHT22;21605;52.068;20.806;2023-03-20T17:40:03;11.90;80.80
35491;DHT22;21605;52.068;20.806;2023-03-20T17:42:30;11.80;81.60
35491;DHT22;21605;52.068;20.806;2023-03-20T17:45:01;11.80;82.00
35491;DHT22;21605;52.068;20.806;2023-03-20T17:47:30;11.70;82.30
35491;DHT22;21605;52.068;20.806;2023-03-20T17:50:05;11.70;82.00
35491;DHT22;21605;52.068;20.806;2023-03-20T17:52:31;11.60;81.80
35491;DHT22;21605;52.068;20.806;2023-03-20T17:54:56;11.50;82.60
35491;DHT22;21605;52.068;20.806;2023-03-20T17:57:31;11.50;82.50
35491;DHT22;21605;52.068;20.806;2023-03-20T18:00:05;11.40;82.40
35491;DHT22;21605;52.068;20.806;2023-03-20T18:02:31;11.30;82.70
35491;DHT22;21605;52.068;20.806;2023-03-20T18:05:02;11.20;82.20
35491;DHT22;21605;52.068;20.806;2023-03-20T18:07:28;11.20;82.30
35491;DHT22;21605;52.068;20.806;2023-03-20T18:09:53;11.10;82.00
35491;DHT22;21605;52.068;20.806;2023-03-20T18:12:34;11.00;81.80
35491;DHT22;21605;52.068;20.806;2023-03-20T18:15:05;10.90;82.00
35491;DHT22;21605;52.068;20.806;2023-03-20T18:17:31;10.90;81.70
35491;DHT22;21605;52.068;20.806;2023-03-20T18:19:56;10.80;80.90
35491;DHT22;21605;52.068;20.806;2023-03-20T18:22:22;10.80;82.10
35491;DHT22;21605;52.068;20.806;2023-03-20T18:24:47;10.70;82.70